sensor_id;sensor_type;location;lat;lon;timestamp;pressure;altitude;pressure_sealevel;temperature;humidity
69351;BME280;57106;51.446;-2.606;2023-04-10T00:02:04;101281.94;;;12.37;76.96
69351;BME280;57106;51.446;-2.606;2023-04-10T00:04:29;101279.29;;;12.51;77.23
69351;BME280;57106;51.446;-2.606;2023-04-10T00:06:55;101283.81;;;12.72;76.37
69351;BME280;57106;51.446;-2.606;2023-04-10T00:09:20;101276.35;;;12.71;76.38
69351;BME280;57106;51.446;-2.606;2023-04-10T00:11:46;101270.95;;;12.53;76.52
69351;BME280;57106;51.446;-2.606;2023-04-10T00:14:11;101267.93;;;12.76;76.04
69351;BME280;57106;51.446;-2.606;2023-04-10T00:16:37;101264.99;;;12.85;76.08
69351;BME280;57106;51.446;-2.606;2023-04-10T00:19:01;101257.99;;;12.72;77.01
69351;BME280;57106;51.446;-2.606;2023-04-10T00:21:27;101256.21;;;12.95;76.22
69351;BME280;57106;51.446;-2.606;2023-04-10T00:23:52;101251.27;;;13.03;75.80
69351;BME280;57106;51.446;-2.606;2023-04-10T00:26:18;101248.90;;;12.76;76.86
69351;BME280;57106;51.446;-2.606;2023-04-10T00:28:46;101244.30;;;12.99;76.14
69351;BME280;57106;51.446;-2.606;2023-04-10T00:31:09;101243.68;;;13.04;75.77
69351;BME280;57106;51.446;-2.606;2023-04-10T00:33:34;101242.38;;;13.17;75.55
69351;BME280;57106;51.446;-2.606;2023-04-10T00:36:00;101241.19;;;12.85;76.51
69351;BME280;57106;51.446;-2.606;2023-04-10T00:38:25;101235.14;;;12.70;76.98
69351;BME280;57106;51.446;-2.606;2023-04-10T00:40:51;101232.43;;;12.78;77.54
69351;BME280;57106;51.446;-2.606;2023-04-10T00:43:17;101229.72;;;12.71;77.65
69351;BME280;57106;51.446;-2.606;2023-04-10T00:45:43;101224.92;;;12.87;77.24
69351;BME280;57106;51.446;-2.606;2023-04-10T00:48:08;101217.04;;;12.85;77.46
69351;BME280;57106;51.446;-2.606;2023-04-10T00:50:33;101212.75;;;12.91;76.87
69351;BME280;57106;51.446;-2.606;2023-04-10T00:52:58;101208.69;;;12.92;77.20
69351;BME280;57106;51.446;-2.606;2023-04-10T00:55:25;101201.32;;;13.04;76.86
69351;BME280;57106;51.446;-2.606;2023-04-10T00:57:50;101193.09;;;12.88;77.63
69351;BME280;57106;51.446;-2.606;2023-04-10T01:00:16;101187.92;;;12.82;77.82
69351;BME280;57106;51.446;-2.606;2023-04-10T01:02:41;101187.84;;;12.76;78.06
69351;BME280;57106;51.446;-2.606;2023-04-10T01:05:07;101180.66;;;12.97;77.73
69351;BME280;57106;51.446;-2.606;2023-04-10T01:07:42;101180.27;;;13.01;77.42
69351;BME280;57106;51.446;-2.606;2023-04-10T01:10:01;101181.62;;;13.04;77.30
69351;BME280;57106;51.446;-2.606;2023-04-10T01:12:34;101180.25;;;12.88;77.96
69351;BME280;57106;51.446;-2.606;2023-04-10T01:14:55;101184.08;;;13.07;77.40
69351;BME280;57106;51.446;-2.606;2023-04-10T01:17:17;101172.07;;;13.03;77.71
69351;BME280;57106;51.446;-2.606;2023-04-10T01:19:53;101167.29;;;13.04;77.27
69351;BME280;57106;51.446;-2.606;2023-04-10T01:22:07;101158.99;;;13.07;77.33
69351;BME280;57106;51.446;-2.606;2023-04-10T01:24:45;101147.34;;;12.93;77.75
69351;BME280;57106;51.446;-2.606;2023-04-10T01:27:08;101142.58;;;13.10;77.45
69351;BME280;57106;51.446;-2.606;2023-04-10T01:29:22;101134.82;;;12.91;77.87
69351;BME280;57106;51.446;-2.606;2023-04-10T01:31:52;101122.58;;;13.02;77.54
69351;BME280;57106;51.446;-2.606;2023-04-10T01:34:16;101118.22;;;13.03;77.56
69351;BME280;57106;51.446;-2.606;2023-04-10T01:36:45;101117.63;;;13.15;77.11
69351;BME280;57106;51.446;-2.606;2023-04-10T01:39:04;101121.18;;;13.22;76.62
69351;BME280;57106;51.446;-2.606;2023-04-10T01:41:30;101115.90;;;13.21;76.79
69351;BME280;57106;51.446;-2.606;2023-04-10T01:43:55;101114.10;;;13.17;76.35
69351;BME280;57106;51.446;-2.606;2023-04-10T01:46:21;101104.00;;;13.06;76.92
69351;BME280;57106;51.446;-2.606;2023-04-10T01:48:46;101103.36;;;12.98;77.19
69351;BME280;57106;51.446;-2.606;2023-04-10T01:51:12;101101.73;;;12.97;77.58
69351;BME280;57106;51.446;-2.606;2023-04-10T01:53:38;101097.99;;;13.07;77.01
69351;BME280;57106;51.446;-2.606;2023-04-10T01:56:03;101094.67;;;12.97;77.20
69351;BME280;57106;51.446;-2.606;2023-04-10T01:58:28;101092.85;;;13.00;76.99
69351;BME280;57106;51.446;-2.606;2023-04-10T02:00:53;101084.70;;;13.04;77.26
69351;BME280;57106;51.446;-2.606;2023-04-10T02:03:19;101082.61;;;12.99;77.03
69351;BME280;57106;51.446;-2.606;2023-04-10T02:05:55;101085.67;;;12.93;77.53
69351;BME280;57106;51.446;-2.606;2023-04-10T02:08:13;101084.38;;;12.94;77.75
69351;BME280;57106;51.446;-2.606;2023-04-10T02:10:40;101092.97;;;12.94;77.79
69351;BME280;57106;51.446;-2.606;2023-04-10T02:13:05;101086.29;;;13.01;77.52
69351;BME280;57106;51.446;-2.606;2023-04-10T02:15:29;101086.02;;;13.16;77.24
69351;BME280;57106;51.446;-2.606;2023-04-10T02:17:54;101091.28;;;12.96;78.16
69351;BME280;57106;51.446;-2.606;2023-04-10T02:20:18;101091.75;;;12.96;78.37
69351;BME280;57106;51.446;-2.606;2023-04-10T02:22:43;101094.21;;;12.96;78.54
69351;BME280;57106;51.446;-2.606;2023-04-10T02:25:10;101097.70;;;12.77;79.62
69351;BME280;57106;51.446;-2.606;2023-04-10T02:27:36;101094.86;;;12.68;79.83
69351;BME280;57106;51.446;-2.606;2023-04-10T02:30:00;101090.92;;;12.90;79.17
69351;BME280;57106;51.446;-2.606;2023-04-10T02:32:25;101093.50;;;12.93;79.54
69351;BME280;57106;51.446;-2.606;2023-04-10T02:34:51;101091.62;;;12.61;80.78
69351;BME280;57106;51.446;-2.606;2023-04-10T02:37:16;101088.17;;;12.73;80.34
69351;BME280;57106;51.446;-2.606;2023-04-10T02:39:42;101087.68;;;12.68;80.46
69351;BME280;57106;51.446;-2.606;2023-04-10T02:42:07;101085.98;;;12.94;79.92
69351;BME280;57106;51.446;-2.606;2023-04-10T02:44:33;101082.46;;;12.85;79.83
69351;BME280;57106;51.446;-2.606;2023-04-10T02:46:58;101076.65;;;12.81;79.80
69351;BME280;57106;51.446;-2.606;2023-04-10T02:49:24;101072.71;;;12.70;80.25
69351;BME280;57106;51.446;-2.606;2023-04-10T02:51:49;101066.92;;;12.73;80.33
69351;BME280;57106;51.446;-2.606;2023-04-10T02:54:15;101065.93;;;12.88;79.90
69351;BME280;57106;51.446;-2.606;2023-04-10T02:56:42;101058.50;;;12.78;80.02
69351;BME280;57106;51.446;-2.606;2023-04-10T02:59:06;101048.12;;;12.91;79.95
69351;BME280;57106;51.446;-2.606;2023-04-10T03:01:31;101044.23;;;12.83;79.56
69351;BME280;57106;51.446;-2.606;2023-04-10T03:03:57;101037.19;;;12.91;79.54
69351;BME280;57106;51.446;-2.606;2023-04-10T03:06:22;101043.26;;;12.70;80.19
69351;BME280;57106;51.446;-2.606;2023-04-10T03:08:48;101035.95;;;12.68;80.38
69351;BME280;57106;51.446;-2.606;2023-04-10T03:11:13;101033.40;;;12.87;79.80
69351;BME280;57106;51.446;-2.606;2023-04-10T03:13:39;101025.28;;;12.76;79.83
69351;BME280;57106;51.446;-2.606;2023-04-10T03:16:05;101020.58;;;12.77;79.47
69351;BME280;57106;51.446;-2.606;2023-04-10T03:18:30;101009.66;;;12.78;79.67
69351;BME280;57106;51.446;-2.606;2023-04-10T03:20:58;101010.35;;;12.68;79.45
69351;BME280;57106;51.446;-2.606;2023-04-10T03:23:21;101007.49;;;12.58;79.57
69351;BME280;57106;51.446;-2.606;2023-04-10T03:25:49;101004.69;;;12.61;79.42
69351;BME280;57106;51.446;-2.606;2023-04-10T03:28:12;100999.97;;;12.51;79.83
69351;BME280;57106;51.446;-2.606;2023-04-10T03:30:38;100996.20;;;12.60;79.28
69351;BME280;57106;51.446;-2.606;2023-04-10T03:33:03;100998.64;;;12.57;78.76
69351;BME280;57106;51.446;-2.606;2023-04-10T03:35:28;100995.78;;;12.66;78.57
69351;BME280;57106;51.446;-2.606;2023-04-10T03:37:54;100989.89;;;12.47;79.18
69351;BME280;57106;51.446;-2.606;2023-04-10T03:40:20;100984.61;;;12.27;80.00
69351;BME280;57106;51.446;-2.606;2023-04-10T03:42:45;100983.94;;;12.34;79.80
69351;BME280;57106;51.446;-2.606;2023-04-10T03:45:11;100975.74;;;12.45;79.38
69351;BME280;57106;51.446;-2.606;2023-04-10T03:47:37;100973.22;;;12.60;78.99
69351;BME280;57106;51.446;-2.606;2023-04-10T03:50:02;100968.39;;;12.63;78.27
69351;BME280;57106;51.446;-2.606;2023-04-10T03:52:27;100969.04;;;12.60;78.14
69351;BME280;57106;51.446;-2.606;2023-04-10T03:54:54;100960.44;;;12.67;77.94
69351;BME280;57106;51.446;-2.606;2023-04-10T03:57:18;100958.84;;;12.60;78.40
69351;BME280;57106;51.446;-2.606;2023-04-10T03:59:44;100952.45;;;12.76;77.21
69351;BME280;57106;51.446;-2.606;2023-04-10T04:09:26;100956.25;;;12.48;77.42
69351;BME280;57106;51.446;-2.606;2023-04-10T04:11:52;100949.76;;;12.47;77.15
69351;BME280;57106;51.446;-2.606;2023-04-10T04:14:17;100942.06;;;12.54;77.64
69351;BME280;57106;51.446;-2.606;2023-04-10T04:16:42;100933.79;;;12.55;77.49
69351;BME280;57106;51.446;-2.606;2023-04-10T04:19:08;100930.73;;;12.49;77.54
69351;BME280;57106;51.446;-2.606;2023-04-10T04:21:34;100927.03;;;12.25;78.30
69351;BME280;57106;51.446;-2.606;2023-04-10T04:23:59;100925.31;;;12.37;78.09
69351;BME280;57106;51.446;-2.606;2023-04-10T04:26:27;100924.06;;;12.61;77.26
69351;BME280;57106;51.446;-2.606;2023-04-10T04:28:50;100921.71;;;12.41;77.22
69351;BME280;57106;51.446;-2.606;2023-04-10T04:31:16;100920.54;;;12.29;77.94
69351;BME280;57106;51.446;-2.606;2023-04-10T04:33:41;100923.66;;;12.50;77.53
69351;BME280;57106;51.446;-2.606;2023-04-10T04:36:07;100921.85;;;12.61;76.95
69351;BME280;57106;51.446;-2.606;2023-04-10T04:38:32;100913.79;;;12.68;76.77
69351;BME280;57106;51.446;-2.606;2023-04-10T04:40:57;100914.97;;;12.77;75.96
69351;BME280;57106;51.446;-2.606;2023-04-10T04:43:23;100914.73;;;12.44;77.00
69351;BME280;57106;51.446;-2.606;2023-04-10T04:45:48;100908.29;;;12.49;77.28
69351;BME280;57106;51.446;-2.606;2023-04-10T04:48:14;100901.88;;;12.31;77.93
69351;BME280;57106;51.446;-2.606;2023-04-10T04:50:39;100895.90;;;12.54;77.25
69351;BME280;57106;51.446;-2.606;2023-04-10T04:53:06;100885.13;;;12.57;76.90
69351;BME280;57106;51.446;-2.606;2023-04-10T04:55:30;100882.57;;;12.12;78.42
69351;BME280;57106;51.446;-2.606;2023-04-10T04:57:56;100878.50;;;12.41;78.30
69351;BME280;57106;51.446;-2.606;2023-04-10T05:00:22;100876.79;;;12.39;78.41
69351;BME280;57106;51.446;-2.606;2023-04-10T05:02:47;100875.23;;;12.37;78.66
69351;BME280;57106;51.446;-2.606;2023-04-10T05:05:14;100872.85;;;12.27;78.84
69351;BME280;57106;51.446;-2.606;2023-04-10T05:07:38;100864.96;;;12.45;78.44
69351;BME280;57106;51.446;-2.606;2023-04-10T05:10:05;100872.29;;;12.35;78.79
69351;BME280;57106;51.446;-2.606;2023-04-10T05:12:29;100867.08;;;12.47;78.65
69351;BME280;57106;51.446;-2.606;2023-04-10T05:14:55;100866.90;;;12.58;78.20
69351;BME280;57106;51.446;-2.606;2023-04-10T05:17:20;100866.30;;;12.38;79.00
69351;BME280;57106;51.446;-2.606;2023-04-10T05:19:46;100870.75;;;12.46;79.02
69351;BME280;57106;51.446;-2.606;2023-04-10T05:22:12;100865.53;;;12.61;78.78
69351;BME280;57106;51.446;-2.606;2023-04-10T05:24:37;100867.46;;;12.56;79.21
69351;BME280;57106;51.446;-2.606;2023-04-10T05:27:02;100870.06;;;12.41;80.30
69351;BME280;57106;51.446;-2.606;2023-04-10T05:29:28;100860.78;;;12.45;80.18
69351;BME280;57106;51.446;-2.606;2023-04-10T05:31:53;100860.46;;;12.30;81.36
69351;BME280;57106;51.446;-2.606;2023-04-10T05:34:19;100852.55;;;12.59;80.60
69351;BME280;57106;51.446;-2.606;2023-04-10T05:36:44;100850.87;;;12.51;80.85
69351;BME280;57106;51.446;-2.606;2023-04-10T05:39:10;100850.58;;;12.58;80.77
69351;BME280;57106;51.446;-2.606;2023-04-10T05:41:35;100849.33;;;12.44;81.56
69351;BME280;57106;51.446;-2.606;2023-04-10T05:44:01;100843.54;;;12.43;81.84
69351;BME280;57106;51.446;-2.606;2023-04-10T05:46:27;100840.85;;;12.54;81.68
69351;BME280;57106;51.446;-2.606;2023-04-10T05:48:52;100841.54;;;12.43;82.42
69351;BME280;57106;51.446;-2.606;2023-04-10T05:51:18;100837.35;;;12.56;82.26
69351;BME280;57106;51.446;-2.606;2023-04-10T05:53:43;100835.76;;;12.42;82.43
69351;BME280;57106;51.446;-2.606;2023-04-10T05:56:12;100831.13;;;12.54;82.56
69351;BME280;57106;51.446;-2.606;2023-04-10T05:58:34;100830.25;;;12.57;82.39
69351;BME280;57106;51.446;-2.606;2023-04-10T06:01:00;100833.97;;;12.52;82.67
69351;BME280;57106;51.446;-2.606;2023-04-10T06:03:25;100832.69;;;12.59;82.64
69351;BME280;57106;51.446;-2.606;2023-04-10T06:05:51;100827.98;;;12.60;82.53
69351;BME280;57106;51.446;-2.606;2023-04-10T06:08:16;100822.87;;;12.49;83.37
69351;BME280;57106;51.446;-2.606;2023-04-10T06:10:42;100822.92;;;12.51;83.55
69351;BME280;57106;51.446;-2.606;2023-04-10T06:13:08;100823.47;;;12.56;83.28
69351;BME280;57106;51.446;-2.606;2023-04-10T06:15:33;100823.71;;;12.70;83.12
69351;BME280;57106;51.446;-2.606;2023-04-10T06:17:58;100818.93;;;12.65;83.43
69351;BME280;57106;51.446;-2.606;2023-04-10T06:20:24;100820.08;;;12.68;83.24
69351;BME280;57106;51.446;-2.606;2023-04-10T06:22:50;100816.68;;;12.55;83.22
69351;BME280;57106;51.446;-2.606;2023-04-10T06:25:15;100811.30;;;12.73;83.33
69351;BME280;57106;51.446;-2.606;2023-04-10T06:27:41;100809.46;;;12.82;82.73
69351;BME280;57106;51.446;-2.606;2023-04-10T06:30:08;100804.64;;;12.80;83.05
69351;BME280;57106;51.446;-2.606;2023-04-10T06:32:32;100804.22;;;12.71;83.05
69351;BME280;57106;51.446;-2.606;2023-04-10T06:34:57;100804.16;;;12.83;82.74
69351;BME280;57106;51.446;-2.606;2023-04-10T06:37:27;100800.42;;;12.89;82.66
69351;BME280;57106;51.446;-2.606;2023-04-10T06:39:48;100797.32;;;12.96;82.67
69351;BME280;57106;51.446;-2.606;2023-04-10T06:42:14;100794.62;;;12.90;82.95
69351;BME280;57106;51.446;-2.606;2023-04-10T06:44:44;100790.36;;;12.98;82.87
69351;BME280;57106;51.446;-2.606;2023-04-10T06:47:06;100794.21;;;12.93;83.02
69351;BME280;57106;51.446;-2.606;2023-04-10T06:49:30;100788.56;;;13.04;82.82
69351;BME280;57106;51.446;-2.606;2023-04-10T06:51:56;100784.99;;;12.94;82.78
69351;BME280;57106;51.446;-2.606;2023-04-10T06:54:22;100774.43;;;13.03;82.62
69351;BME280;57106;51.446;-2.606;2023-04-10T06:56:47;100769.63;;;13.02;82.77
69351;BME280;57106;51.446;-2.606;2023-04-10T06:59:13;100769.58;;;13.11;82.22
69351;BME280;57106;51.446;-2.606;2023-04-10T07:01:38;100770.80;;;13.12;82.06
69351;BME280;57106;51.446;-2.606;2023-04-10T07:04:09;100776.55;;;13.18;82.37
69351;BME280;57106;51.446;-2.606;2023-04-10T07:16:12;100760.64;;;13.54;79.85
69351;BME280;57106;51.446;-2.606;2023-04-10T07:23:27;100749.03;;;13.00;81.34
69351;BME280;57106;51.446;-2.606;2023-04-10T07:33:11;100738.35;;;13.33;79.12
69351;BME280;57106;51.446;-2.606;2023-04-10T07:35:35;100738.78;;;13.51;78.99
69351;BME280;57106;51.446;-2.606;2023-04-10T07:38:00;100742.78;;;13.57;78.52
69351;BME280;57106;51.446;-2.606;2023-04-10T07:40:31;100738.25;;;13.66;78.01
69351;BME280;57106;51.446;-2.606;2023-04-10T07:42:52;100734.26;;;13.54;78.11
69351;BME280;57106;51.446;-2.606;2023-04-10T07:45:17;100737.43;;;13.45;78.61
69351;BME280;57106;51.446;-2.606;2023-04-10T07:47:42;100741.24;;;13.60;78.29
69351;BME280;57106;51.446;-2.606;2023-04-10T07:50:08;100744.54;;;13.57;78.46
69351;BME280;57106;51.446;-2.606;2023-04-10T07:52:33;100743.50;;;13.37;78.91
69351;BME280;57106;51.446;-2.606;2023-04-10T07:55:00;100741.11;;;13.26;79.40
69351;BME280;57106;51.446;-2.606;2023-04-10T07:57:24;100744.77;;;13.41;79.39
69351;BME280;57106;51.446;-2.606;2023-04-10T07:59:50;100748.68;;;13.50;79.28
69351;BME280;57106;51.446;-2.606;2023-04-10T08:02:15;100748.33;;;13.43;79.42
69351;BME280;57106;51.446;-2.606;2023-04-10T08:04:41;100743.08;;;13.37;79.95
69351;BME280;57106;51.446;-2.606;2023-04-10T08:07:07;100746.11;;;13.36;79.99
69351;BME280;57106;51.446;-2.606;2023-04-10T08:09:32;100741.64;;;13.25;80.54
69351;BME280;57106;51.446;-2.606;2023-04-10T08:11:57;100741.72;;;13.11;80.71
69351;BME280;57106;51.446;-2.606;2023-04-10T08:14:23;100742.37;;;13.13;81.33
69351;BME280;57106;51.446;-2.606;2023-04-10T08:16:49;100737.58;;;13.15;81.11
69351;BME280;57106;51.446;-2.606;2023-04-10T08:19:14;100739.27;;;13.00;81.82
69351;BME280;57106;51.446;-2.606;2023-04-10T08:21:39;100740.07;;;13.02;81.92
69351;BME280;57106;51.446;-2.606;2023-04-10T08:24:05;100735.91;;;12.71;81.99
69351;BME280;57106;51.446;-2.606;2023-04-10T08:26:30;100736.63;;;12.52;83.01
69351;BME280;57106;51.446;-2.606;2023-04-10T08:28:58;100738.38;;;12.73;83.15
69351;BME280;57106;51.446;-2.606;2023-04-10T08:31:24;100729.10;;;12.58;83.45
69351;BME280;57106;51.446;-2.606;2023-04-10T08:33:48;100728.86;;;12.74;82.91
69351;BME280;57106;51.446;-2.606;2023-04-10T08:36:13;100736.83;;;12.65;83.44
69351;BME280;57106;51.446;-2.606;2023-04-10T08:38:38;100738.29;;;12.48;82.65
69351;BME280;57106;51.446;-2.606;2023-04-10T08:41:04;100740.00;;;12.62;82.32
69351;BME280;57106;51.446;-2.606;2023-04-10T08:43:29;100735.06;;;12.64;81.99
69351;BME280;57106;51.446;-2.606;2023-04-10T08:45:55;100729.49;;;12.64;80.67
69351;BME280;57106;51.446;-2.606;2023-04-10T08:48:20;100729.21;;;12.84;79.66
69351;BME280;57106;51.446;-2.606;2023-04-10T08:50:46;100724.35;;;12.73;79.22
69351;BME280;57106;51.446;-2.606;2023-04-10T08:53:13;100727.32;;;12.95;78.91
69351;BME280;57106;51.446;-2.606;2023-04-10T08:55:38;100728.07;;;12.97;78.11
69351;BME280;57106;51.446;-2.606;2023-04-10T08:58:03;100726.14;;;12.90;78.05
69351;BME280;57106;51.446;-2.606;2023-04-10T09:00:28;100731.22;;;13.04;77.73
69351;BME280;57106;51.446;-2.606;2023-04-10T09:02:54;100726.97;;;13.13;77.16
69351;BME280;57106;51.446;-2.606;2023-04-10T09:05:19;100724.44;;;13.16;76.68
69351;BME280;57106;51.446;-2.606;2023-04-10T09:07:44;100724.01;;;13.05;77.83
69351;BME280;57106;51.446;-2.606;2023-04-10T09:10:10;100723.78;;;13.01;78.06
69351;BME280;57106;51.446;-2.606;2023-04-10T09:12:45;100725.96;;;13.07;78.50
69351;BME280;57106;51.446;-2.606;2023-04-10T09:15:01;100710.48;;;13.16;78.44
69351;BME280;57106;51.446;-2.606;2023-04-10T09:17:26;100705.43;;;13.13;77.87
69351;BME280;57106;51.446;-2.606;2023-04-10T09:19:53;100696.93;;;12.97;79.77
69351;BME280;57106;51.446;-2.606;2023-04-10T09:22:18;100692.27;;;13.00;80.18
69351;BME280;57106;51.446;-2.606;2023-04-10T09:24:44;100698.12;;;12.88;80.45
69351;BME280;57106;51.446;-2.606;2023-04-10T09:27:08;100695.69;;;12.95;80.77
69351;BME280;57106;51.446;-2.606;2023-04-10T09:29:40;100696.57;;;13.02;80.42
69351;BME280;57106;51.446;-2.606;2023-04-10T09:31:59;100698.34;;;13.07;80.64
69351;BME280;57106;51.446;-2.606;2023-04-10T09:34:25;100695.45;;;13.23;80.23
69351;BME280;57106;51.446;-2.606;2023-04-10T09:36:53;100696.90;;;13.26;79.91
69351;BME280;57106;51.446;-2.606;2023-04-10T09:39:16;100694.85;;;13.22;79.92
69351;BME280;57106;51.446;-2.606;2023-04-10T09:41:48;100696.31;;;13.26;80.36
69351;BME280;57106;51.446;-2.606;2023-04-10T09:44:09;100698.17;;;13.19;80.11
69351;BME280;57106;51.446;-2.606;2023-04-10T09:46:32;100692.24;;;13.32;79.92
69351;BME280;57106;51.446;-2.606;2023-04-10T09:48:58;100691.85;;;13.40;79.17
69351;BME280;57106;51.446;-2.606;2023-04-10T09:51:28;100696.73;;;13.53;78.29
69351;BME280;57106;51.446;-2.606;2023-04-10T09:53:49;100693.04;;;13.58;77.67
69351;BME280;57106;51.446;-2.606;2023-04-10T09:56:14;100695.27;;;13.83;76.83
69351;BME280;57106;51.446;-2.606;2023-04-10T09:58:40;100694.18;;;13.86;75.55
69351;BME280;57106;51.446;-2.606;2023-04-10T10:01:06;100693.79;;;13.69;74.77
69351;BME280;57106;51.446;-2.606;2023-04-10T10:03:32;100698.42;;;13.99;73.37
69351;BME280;57106;51.446;-2.606;2023-04-10T10:05:56;100697.32;;;14.11;73.20
69351;BME280;57106;51.446;-2.606;2023-04-10T10:08:22;100696.96;;;14.09;73.81
69351;BME280;57106;51.446;-2.606;2023-04-10T10:10:49;100699.61;;;14.31;74.01
69351;BME280;57106;51.446;-2.606;2023-04-10T10:13:15;100690.07;;;14.48;71.97
69351;BME280;57106;51.446;-2.606;2023-04-10T10:15:45;100687.33;;;14.48;69.70
69351;BME280;57106;51.446;-2.606;2023-04-10T10:18:16;100692.26;;;14.92;70.01
69351;BME280;57106;51.446;-2.606;2023-04-10T10:20:31;100706.82;;;14.90;66.59
69351;BME280;57106;51.446;-2.606;2023-04-10T10:22:55;100696.89;;;14.43;67.83
69351;BME280;57106;51.446;-2.606;2023-04-10T10:25:20;100708.73;;;14.21;69.65
69351;BME280;57106;51.446;-2.606;2023-04-10T10:27:45;100698.31;;;13.98;69.78
69351;BME280;57106;51.446;-2.606;2023-04-10T10:30:11;100695.63;;;13.89;70.12
69351;BME280;57106;51.446;-2.606;2023-04-10T10:32:36;100696.05;;;13.95;70.79
69351;BME280;57106;51.446;-2.606;2023-04-10T10:35:02;100689.93;;;14.25;70.29
69351;BME280;57106;51.446;-2.606;2023-04-10T10:37:28;100694.27;;;14.42;69.28
69351;BME280;57106;51.446;-2.606;2023-04-10T10:42:25;100696.64;;;14.65;68.13
69351;BME280;57106;51.446;-2.606;2023-04-10T10:44:56;100700.16;;;14.56;66.46
69351;BME280;57106;51.446;-2.606;2023-04-10T10:47:15;100695.30;;;14.45;66.99
69351;BME280;57106;51.446;-2.606;2023-04-10T10:52:00;100695.22;;;14.86;65.50
69351;BME280;57106;51.446;-2.606;2023-04-10T10:54:27;100692.33;;;14.91;64.99
69351;BME280;57106;51.446;-2.606;2023-04-10T10:56:51;100674.36;;;15.33;64.72
69351;BME280;57106;51.446;-2.606;2023-04-10T10:59:16;100687.79;;;14.89;63.84
69351;BME280;57106;51.446;-2.606;2023-04-10T11:09:02;100683.62;;;14.91;64.92
69351;BME280;57106;51.446;-2.606;2023-04-10T11:11:24;100695.59;;;14.49;66.26
69351;BME280;57106;51.446;-2.606;2023-04-10T11:16:14;100688.22;;;14.24;67.29
69351;BME280;57106;51.446;-2.606;2023-04-10T11:21:09;100684.29;;;14.01;66.33
69351;BME280;57106;51.446;-2.606;2023-04-10T11:23:31;100690.25;;;13.86;65.45
69351;BME280;57106;51.446;-2.606;2023-04-10T11:25:57;100684.27;;;13.87;65.83
69351;BME280;57106;51.446;-2.606;2023-04-10T11:28:33;100691.91;;;13.84;65.25
69351;BME280;57106;51.446;-2.606;2023-04-10T11:30:47;100698.65;;;13.53;66.32
69351;BME280;57106;51.446;-2.606;2023-04-10T11:33:16;100696.53;;;13.83;66.68
69351;BME280;57106;51.446;-2.606;2023-04-10T11:35:38;100702.20;;;14.23;66.30
69351;BME280;57106;51.446;-2.606;2023-04-10T11:38:14;100710.92;;;14.50;65.56
69351;BME280;57106;51.446;-2.606;2023-04-10T11:40:29;100703.64;;;14.08;64.93
69351;BME280;57106;51.446;-2.606;2023-04-10T11:45:23;100708.33;;;13.82;62.26
69351;BME280;57106;51.446;-2.606;2023-04-10T11:47:51;100718.06;;;13.74;60.50
69351;BME280;57106;51.446;-2.606;2023-04-10T11:50:11;100711.37;;;13.52;61.38
69351;BME280;57106;51.446;-2.606;2023-04-10T11:52:37;100711.96;;;13.65;61.39
69351;BME280;57106;51.446;-2.606;2023-04-10T11:55:05;100726.53;;;13.64;61.26
69351;BME280;57106;51.446;-2.606;2023-04-10T11:57:33;100743.67;;;13.33;61.15
69351;BME280;57106;51.446;-2.606;2023-04-10T11:59:54;100717.87;;;13.45;61.87
69351;BME280;57106;51.446;-2.606;2023-04-10T12:02:21;100732.36;;;13.56;59.63
69351;BME280;57106;51.446;-2.606;2023-04-10T12:07:10;100738.92;;;13.30;59.09
69351;BME280;57106;51.446;-2.606;2023-04-10T12:09:35;100727.24;;;13.19;59.46
69351;BME280;57106;51.446;-2.606;2023-04-10T12:12:02;100752.60;;;13.11;59.55
69351;BME280;57106;51.446;-2.606;2023-04-10T12:14:30;100740.76;;;13.21;59.66
69351;BME280;57106;51.446;-2.606;2023-04-10T12:16:52;100749.83;;;13.20;60.80
69351;BME280;57106;51.446;-2.606;2023-04-10T12:21:43;100747.59;;;13.45;59.98
69351;BME280;57106;51.446;-2.606;2023-04-10T12:24:09;100744.50;;;13.58;59.00
69351;BME280;57106;51.446;-2.606;2023-04-10T12:26:34;100749.49;;;13.77;58.80
69351;BME280;57106;51.446;-2.606;2023-04-10T12:29:02;100756.96;;;13.65;57.49
69351;BME280;57106;51.446;-2.606;2023-04-10T12:31:26;100755.78;;;13.35;58.83
69351;BME280;57106;51.446;-2.606;2023-04-10T12:33:51;100775.04;;;13.28;58.49
69351;BME280;57106;51.446;-2.606;2023-04-10T12:36:20;100772.54;;;13.06;59.13
69351;BME280;57106;51.446;-2.606;2023-04-10T12:38:42;100769.67;;;13.01;58.59
69351;BME280;57106;51.446;-2.606;2023-04-10T12:41:20;100784.57;;;13.00;58.52
69351;BME280;57106;51.446;-2.606;2023-04-10T12:43:34;100774.86;;;13.02;57.95
69351;BME280;57106;51.446;-2.606;2023-04-10T12:45:58;100779.06;;;13.04;58.03
69351;BME280;57106;51.446;-2.606;2023-04-10T12:48:23;100773.84;;;12.98;58.76
69351;BME280;57106;51.446;-2.606;2023-04-10T12:50:54;100778.32;;;13.04;58.34
69351;BME280;57106;51.446;-2.606;2023-04-10T12:53:14;100768.54;;;13.06;57.95
69351;BME280;57106;51.446;-2.606;2023-04-10T12:55:56;100785.06;;;13.23;57.94
69351;BME280;57106;51.446;-2.606;2023-04-10T12:58:15;100774.90;;;13.19;57.77
69351;BME280;57106;51.446;-2.606;2023-04-10T13:00:31;100787.93;;;13.09;57.16
69351;BME280;57106;51.446;-2.606;2023-04-10T13:02:56;100781.00;;;13.14;58.00
69351;BME280;57106;51.446;-2.606;2023-04-10T13:05:22;100787.51;;;13.33;57.78
69351;BME280;57106;51.446;-2.606;2023-04-10T13:07:47;100769.08;;;13.34;57.75
69351;BME280;57106;51.446;-2.606;2023-04-10T13:10:12;100785.35;;;13.44;58.43
69351;BME280;57106;51.446;-2.606;2023-04-10T13:12:38;100790.58;;;13.51;58.23
69351;BME280;57106;51.446;-2.606;2023-04-10T13:15:09;100777.69;;;13.52;58.34
69351;BME280;57106;51.446;-2.606;2023-04-10T13:17:29;100785.18;;;13.42;57.65
69351;BME280;57106;51.446;-2.606;2023-04-10T13:19:57;100797.55;;;13.49;57.92
69351;BME280;57106;51.446;-2.606;2023-04-10T13:22:20;100793.19;;;13.49;57.28
69351;BME280;57106;51.446;-2.606;2023-04-10T13:24:53;100786.63;;;13.50;57.45